createdAt,value
2023-04-20T00:02:17.879Z,33.50
2023-04-20T00:04:50.401Z,34.63
2023-04-20T00:07:24.927Z,34.37
2023-04-20T00:09:57.053Z,36.58
2023-04-20T00:12:29.120Z,33.22
2023-04-20T00:15:01.384Z,34.58
2023-04-20T00:17:33.672Z,30.35
2023-04-20T00:20:10.172Z,37.15
2023-04-20T00:22:42.295Z,34.47
2023-04-20T00:25:14.381Z,32.83
2023-04-20T00:27:46.803Z,33.47
2023-04-20T00:30:19.033Z,29.40
2023-04-20T00:32:51.758Z,39.63
2023-04-20T00:35:24.110Z,37.40
2023-04-20T00:37:57.140Z,32.83
2023-04-20T00:40:31.093Z,37.97
2023-04-20T00:43:11.042Z,29.40
2023-04-20T00:45:43.132Z,30.67
2023-04-20T00:48:15.822Z,27.27
2023-04-20T00:50:49.033Z,27.20
2023-04-20T00:53:21.362Z,27.25
2023-04-20T00:55:54.772Z,26.08
2023-04-20T00:58:27.085Z,27.33
2023-04-20T01:00:59.510Z,27.63
2023-04-20T01:03:32.487Z,23.55
2023-04-20T01:06:07.953Z,27.52
2023-04-20T01:08:48.295Z,28.33
2023-04-20T01:11:20.370Z,28.23
2023-04-20T01:13:52.471Z,25.63
2023-04-20T01:16:24.661Z,24.08
2023-04-20T01:18:57.450Z,27.23
2023-04-20T01:21:29.735Z,20.50
2023-04-20T01:24:04.014Z,23.77
2023-04-20T01:26:37.923Z,22.83
2023-04-20T01:29:12.881Z,20.33
2023-04-20T01:31:45.083Z,21.48
2023-04-20T01:34:17.846Z,21.25
2023-04-20T01:36:50.789Z,23.27
2023-04-20T01:39:22.927Z,19.48
2023-04-20T01:41:55.049Z,16.35
2023-04-20T01:44:27.197Z,22.02
2023-04-20T01:46:59.582Z,17.42
2023-04-20T01:49:32.282Z,17.88
2023-04-20T01:52:04.474Z,20.13
2023-04-20T01:54:37.660Z,14.80
2023-04-20T01:59:42.126Z,15.52
2023-04-20T02:02:14.324Z,17.25
2023-04-20T02:04:46.575Z,17.20
2023-04-20T02:07:18.745Z,16.55
2023-04-20T02:09:50.826Z,17.50
2023-04-20T02:12:23.335Z,18.92
2023-04-20T02:14:55.521Z,14.45
2023-04-20T02:17:30.065Z,18.38
2023-04-20T02:20:02.205Z,16.65
2023-04-20T02:22:35.308Z,16.85
2023-04-20T02:25:09.326Z,19.67
2023-04-20T02:27:42.833Z,19.20
2023-04-20T02:30:17.146Z,21.50
2023-04-20T02:32:49.392Z,18.13
2023-04-20T02:35:22.164Z,18.80
2023-04-20T02:37:54.376Z,19.08
2023-04-20T02:40:26.515Z,21.00
2023-04-20T02:42:59.403Z,22.70
2023-04-20T02:45:33.410Z,23.50
2023-04-20T02:48:06.067Z,21.13
2023-04-20T02:50:38.624Z,23.88
2023-04-20T02:53:20.890Z,21.80
2023-04-20T02:56:00.360Z,24.80
2023-04-20T02:58:45.010Z,22.92
2023-04-20T03:01:40.018Z,25.30
2023-04-20T03:04:19.612Z,24.67
2023-04-20T03:07:05.962Z,27.15
2023-04-20T03:09:40.504Z,24.65
2023-04-20T03:12:29.184Z,22.23
2023-04-20T03:15:33.808Z,24.90
2023-04-20T03:18:21.113Z,21.83
2023-04-20T03:20:53.356Z,21.77
2023-04-20T03:23:25.692Z,23.85
2023-04-20T03:25:57.941Z,26.05
2023-04-20T03:28:51.244Z,25.55
2023-04-20T03:31:27.238Z,25.92
2023-04-20T03:34:02.156Z,25.85
2023-04-20T03:36:34.552Z,32.80
2023-04-20T03:39:07.220Z,26.90
2023-04-20T03:41:39.799Z,29.92
2023-04-20T03:44:12.437Z,31.90
2023-04-20T03:46:44.525Z,29.48
2023-04-20T03:49:16.939Z,36.47
2023-04-20T03:51:49.679Z,29.25
2023-04-20T03:54:21.755Z,34.08
2023-04-20T03:56:54.311Z,32.80
2023-04-20T03:59:27.018Z,29.70
2023-04-20T04:02:00.024Z,22.70
2023-04-20T04:04:32.834Z,22.80
2023-04-20T04:07:05.802Z,25.10
2023-04-20T04:09:37.969Z,21.23
2023-04-20T04:12:10.550Z,22.38
2023-04-20T04:14:43.410Z,22.33
2023-04-20T04:17:18.173Z,22.58
2023-04-20T04:19:51.142Z,22.67
2023-04-20T04:22:23.266Z,22.92
2023-04-20T04:25:15.509Z,20.95
2023-04-20T04:27:49.369Z,20.90
2023-04-20T04:30:21.484Z,19.02
2023-04-20T04:32:53.929Z,20.25
2023-04-20T04:35:27.120Z,21.83
2023-04-20T04:38:01.182Z,18.52
2023-04-20T04:40:34.198Z,19.05
2023-04-20T04:43:10.394Z,17.13
2023-04-20T04:45:45.680Z,18.65
2023-04-20T04:48:17.908Z,17.92
2023-04-20T04:53:23.682Z,16.80
2023-04-20T04:55:56.101Z,21.60
2023-04-20T04:58:28.287Z,16.58
2023-04-20T05:01:00.343Z,21.67
2023-04-20T05:03:32.636Z,23.20
2023-04-20T05:06:05.341Z,21.60
2023-04-20T05:08:37.493Z,24.35
2023-04-20T05:11:09.698Z,21.25
2023-04-20T05:13:41.991Z,18.30
2023-04-20T05:16:14.584Z,16.38
2023-04-20T05:18:46.897Z,15.70
2023-04-20T05:21:19.523Z,16.67
2023-04-20T05:23:51.946Z,15.88
2023-04-20T05:26:24.180Z,19.08
2023-04-20T05:28:56.246Z,17.55
2023-04-20T05:31:29.468Z,18.27
2023-04-20T05:34:02.979Z,17.25
2023-04-20T05:39:07.267Z,16.88
2023-04-20T05:41:39.988Z,18.95
2023-04-20T05:44:12.303Z,17.30
2023-04-20T05:46:44.561Z,16.65
2023-04-20T05:49:17.109Z,15.35
2023-04-20T05:51:49.569Z,16.63
2023-04-20T05:54:22.702Z,15.98
2023-04-20T05:56:55.766Z,16.73
2023-04-20T06:02:00.935Z,20.15
2023-04-20T06:04:33.469Z,19.23
2023-04-20T06:07:05.956Z,12.23
2023-04-20T06:09:38.436Z,14.88
2023-04-20T06:12:10.553Z,15.35
2023-04-20T06:14:42.951Z,18.65
2023-04-20T06:17:15.248Z,20.10
2023-04-20T06:19:47.679Z,20.10
2023-04-20T06:22:20.638Z,17.80
2023-04-20T06:24:53.090Z,15.13
2023-04-20T06:27:25.561Z,14.23
2023-04-20T06:29:57.795Z,16.85
2023-04-20T06:32:30.134Z,17.30
2023-04-20T06:35:02.797Z,16.25
2023-04-20T06:37:38.123Z,17.08
2023-04-20T06:40:10.465Z,19.30
2023-04-20T06:42:42.603Z,17.65
2023-04-20T06:45:14.715Z,13.73
2023-04-20T06:47:46.965Z,15.50
2023-04-20T06:50:19.975Z,14.25
2023-04-20T06:52:52.177Z,13.50
2023-04-20T06:55:24.421Z,13.20
2023-04-20T06:57:57.041Z,15.33
2023-04-20T07:00:29.158Z,17.92
2023-04-20T07:03:02.936Z,15.57
2023-04-20T07:05:36.816Z,19.65
2023-04-20T07:08:09.723Z,26.38
2023-04-20T07:10:41.862Z,19.53
2023-04-20T07:13:14.291Z,15.75
2023-04-20T07:15:46.608Z,15.75
2023-04-20T07:18:19.053Z,16.15
2023-04-20T07:20:52.227Z,16.45
2023-04-20T07:23:24.913Z,14.68
2023-04-20T07:25:57.033Z,16.63
2023-04-20T07:28:29.093Z,18.58
2023-04-20T07:31:01.712Z,21.50
2023-04-20T07:33:35.903Z,21.73
2023-04-20T07:36:08.612Z,21.67
2023-04-20T07:38:40.780Z,21.70
2023-04-20T07:41:13.017Z,20.30
2023-04-20T07:43:45.148Z,19.05
2023-04-20T07:46:21.856Z,20.02
2023-04-20T07:48:54.128Z,21.75
2023-04-20T07:51:26.900Z,20.15
2023-04-20T07:53:58.971Z,25.13
2023-04-20T07:56:32.271Z,21.48
2023-04-20T07:59:04.402Z,22.25
2023-04-20T08:01:37.170Z,21.83
2023-04-20T08:04:09.507Z,21.50
2023-04-20T08:06:41.830Z,19.85
2023-04-20T08:09:13.951Z,22.52
2023-04-20T08:11:46.522Z,20.48
2023-04-20T08:14:18.986Z,19.30
2023-04-20T08:16:51.743Z,20.10
2023-04-20T08:19:23.978Z,18.77
2023-04-20T08:21:56.740Z,23.48
2023-04-20T08:24:29.476Z,22.05
2023-04-20T08:27:01.896Z,21.45
2023-04-20T08:29:33.993Z,27.17
2023-04-20T08:32:09.372Z,26.80
2023-04-20T08:34:45.103Z,28.85
2023-04-20T08:37:17.239Z,31.55
2023-04-20T08:39:49.571Z,25.77
2023-04-20T08:42:21.800Z,27.75
2023-04-20T08:44:53.899Z,23.95
2023-04-20T08:47:28.210Z,25.92
2023-04-20T08:50:01.356Z,24.63
2023-04-20T08:52:36.088Z,26.98
2023-04-20T08:55:08.964Z,23.75
2023-04-20T08:57:42.590Z,25.40
2023-04-20T09:02:55.242Z,23.30
2023-04-20T09:05:32.362Z,26.13
2023-04-20T09:08:05.402Z,29.23
2023-04-20T09:10:45.125Z,27.10
2023-04-20T09:13:24.396Z,28.40
2023-04-20T09:15:56.633Z,28.50
2023-04-20T09:18:28.855Z,28.52
2023-04-20T09:21:09.184Z,29.60
2023-04-20T09:23:41.533Z,26.65
2023-04-20T09:26:19.211Z,26.55
2023-04-20T09:28:51.429Z,26.33
2023-04-20T09:31:24.115Z,26.52
2023-04-20T09:34:01.474Z,26.33
2023-04-20T09:36:42.197Z,26.15
2023-04-20T09:39:17.224Z,24.85
2023-04-20T09:41:53.266Z,27.65
2023-04-20T09:44:25.634Z,28.40
2023-04-20T09:46:59.667Z,25.75
2023-04-20T09:49:32.766Z,25.45
2023-04-20T09:52:05.336Z,24.52
2023-04-20T09:54:38.230Z,32.05
2023-04-20T09:57:10.579Z,24.33
2023-04-20T09:59:44.192Z,24.98
2023-04-20T10:04:56.674Z,24.30
2023-04-20T10:07:32.027Z,24.27
2023-04-20T10:10:12.837Z,23.45
2023-04-20T10:12:52.665Z,21.90
2023-04-20T10:15:37.318Z,21.48
2023-04-20T10:18:24.079Z,22.85
2023-04-20T10:21:11.284Z,24.70
2023-04-20T10:23:51.003Z,23.27
2023-04-20T10:26:23.704Z,25.27
2023-04-20T10:28:56.080Z,24.23
2023-04-20T10:31:41.946Z,24.58
2023-04-20T10:34:14.707Z,23.58
2023-04-20T10:36:46.960Z,25.37
2023-04-20T10:39:22.382Z,22.90
2023-04-20T10:42:02.335Z,23.58
2023-04-20T10:44:35.696Z,27.90
2023-04-20T10:47:07.887Z,26.00
2023-04-20T10:49:40.411Z,26.23
2023-04-20T10:52:12.595Z,23.08
2023-04-20T10:54:44.661Z,23.95
2023-04-20T10:57:17.223Z,24.65
2023-04-20T10:59:49.431Z,21.77
2023-04-20T11:02:22.072Z,25.80
2023-04-20T11:05:01.006Z,21.42
2023-04-20T11:07:33.575Z,23.17
2023-04-20T11:10:07.187Z,21.55
2023-04-20T11:12:40.150Z,21.85
2023-04-20T11:15:12.386Z,22.35
2023-04-20T11:17:45.264Z,23.52
2023-04-20T11:20:18.734Z,22.88
2023-04-20T11:25:30.107Z,25.23
2023-04-20T11:28:11.550Z,23.50
2023-04-20T11:30:44.157Z,20.15
2023-04-20T11:33:28.287Z,18.95
2023-04-20T11:36:02.074Z,18.48
2023-04-20T11:38:35.270Z,19.58
2023-04-20T11:41:08.051Z,18.52
2023-04-20T11:43:40.287Z,17.23
2023-04-20T11:46:21.689Z,18.10
2023-04-20T11:48:54.455Z,15.65
2023-04-20T11:51:27.793Z,16.20
2023-04-20T11:53:59.970Z,21.45
2023-04-20T11:56:32.306Z,19.15
2023-04-20T11:59:05.024Z,17.90
2023-04-20T12:01:38.598Z,18.08
2023-04-20T12:04:11.135Z,19.65
2023-04-20T12:06:43.643Z,17.07
2023-04-20T12:09:15.815Z,17.40
2023-04-20T12:11:47.972Z,17.77
2023-04-20T12:14:20.349Z,23.10
2023-04-20T12:16:52.855Z,18.63
2023-04-20T12:19:24.974Z,18.90
2023-04-20T12:21:57.148Z,19.50
2023-04-20T12:24:29.942Z,17.20
2023-04-20T12:27:03.965Z,17.67
2023-04-20T12:29:36.082Z,17.85
2023-04-20T12:32:08.512Z,17.58
2023-04-20T12:34:41.212Z,17.95
2023-04-20T12:37:14.866Z,18.83
2023-04-20T12:42:19.551Z,17.90
2023-04-20T12:44:54.904Z,22.43
2023-04-20T12:47:27.096Z,20.45
2023-04-20T12:49:59.440Z,19.98
2023-04-20T12:52:31.594Z,20.70
2023-04-20T12:55:04.323Z,21.98
2023-04-20T12:57:37.426Z,19.75
2023-04-20T13:00:11.620Z,18.73
2023-04-20T13:02:45.453Z,24.33
2023-04-20T13:05:17.944Z,20.40
2023-04-20T13:07:50.056Z,20.33
2023-04-20T13:10:22.347Z,19.08
2023-04-20T13:12:54.450Z,18.35
2023-04-20T13:15:38.000Z,19.45
2023-04-20T13:18:11.427Z,18.65
2023-04-20T13:20:43.516Z,19.05
2023-04-20T13:23:16.040Z,18.60
2023-04-20T13:25:48.606Z,19.73
2023-04-20T13:28:20.792Z,20.15
2023-04-20T13:30:55.600Z,20.73
2023-04-20T13:33:27.776Z,21.52
2023-04-20T13:36:00.139Z,23.80
2023-04-20T13:38:32.307Z,22.67
2023-04-20T13:41:04.720Z,19.60
2023-04-20T13:43:37.125Z,22.38
2023-04-20T13:46:09.432Z,22.08
2023-04-20T13:48:42.639Z,26.88
2023-04-20T13:51:14.978Z,22.42
2023-04-20T13:53:50.051Z,21.75
2023-04-20T13:56:22.297Z,25.02
2023-04-20T13:58:54.468Z,26.45
2023-04-20T14:01:26.879Z,25.52
2023-04-20T14:03:59.399Z,27.98
2023-04-20T14:06:32.178Z,30.92
2023-04-20T14:09:04.468Z,30.48
2023-04-20T14:11:36.739Z,31.50
2023-04-20T14:14:09.582Z,33.58
2023-04-20T14:16:46.207Z,32.95
2023-04-20T14:19:18.479Z,29.05
2023-04-20T14:21:51.323Z,30.83
2023-04-20T14:24:24.303Z,33.05
2023-04-20T14:26:57.295Z,31.58
2023-04-20T14:29:29.516Z,32.03
2023-04-20T14:32:01.685Z,35.65
2023-04-20T14:34:34.104Z,36.97
2023-04-20T14:37:06.231Z,39.72
2023-04-20T14:39:38.880Z,37.15
2023-04-20T14:42:12.155Z,36.92
2023-04-20T14:44:44.849Z,39.95
2023-04-20T14:47:17.078Z,40.00
2023-04-20T14:49:49.195Z,36.85
2023-04-20T14:52:21.653Z,39.28
2023-04-20T14:54:54.010Z,39.15
2023-04-20T14:57:26.257Z,37.22
2023-04-20T14:59:58.467Z,40.20
2023-04-20T15:02:31.313Z,35.60
2023-04-20T15:07:36.263Z,38.40
2023-04-20T15:10:09.450Z,39.40
2023-04-20T15:12:41.532Z,35.92
2023-04-20T15:15:14.296Z,39.45
2023-04-20T15:17:47.112Z,36.40
2023-04-20T15:20:19.797Z,39.40
2023-04-20T15:22:52.027Z,36.70
2023-04-20T15:25:24.891Z,33.20
2023-04-20T15:27:57.051Z,33.20
2023-04-20T15:30:30.643Z,34.38
2023-04-20T15:35:38.290Z,33.63
2023-04-20T15:38:10.543Z,33.05
2023-04-20T15:40:42.769Z,31.98
2023-04-20T15:43:15.130Z,39.05
2023-04-20T15:45:47.329Z,29.45
2023-04-20T15:48:19.688Z,35.58
2023-04-20T15:50:52.716Z,31.55
2023-04-20T15:53:25.425Z,32.20
2023-04-20T15:55:57.819Z,32.87
2023-04-20T15:58:30.056Z,32.92
2023-04-20T16:01:02.195Z,34.22
2023-04-20T16:03:34.666Z,35.90
2023-04-20T16:06:07.399Z,35.63
2023-04-20T16:08:39.790Z,35.20
2023-04-20T16:11:11.871Z,29.17
2023-04-20T16:13:44.694Z,33.92
2023-04-20T16:16:16.875Z,43.93
2023-04-20T16:18:49.163Z,31.95
2023-04-20T16:21:22.818Z,34.20
2023-04-20T16:23:56.806Z,41.63
2023-04-20T16:26:29.197Z,37.53
2023-04-20T16:29:01.505Z,35.58
2023-04-20T16:31:33.644Z,36.47
2023-04-20T16:34:05.859Z,38.00
2023-04-20T16:36:37.997Z,32.95
2023-04-20T16:39:10.515Z,32.15
2023-04-20T16:41:42.719Z,31.27
2023-04-20T16:44:16.656Z,37.15
2023-04-20T16:46:52.058Z,34.08
2023-04-20T16:49:24.272Z,34.85
2023-04-20T16:51:57.620Z,36.45
2023-04-20T16:54:29.799Z,41.10
2023-04-20T16:57:02.312Z,41.88
2023-04-20T16:59:34.514Z,38.28
2023-04-20T17:02:06.875Z,37.25
2023-04-20T17:04:40.338Z,36.72
2023-04-20T17:07:13.649Z,40.33
2023-04-20T17:09:46.048Z,40.42
2023-04-20T17:12:18.198Z,38.30
2023-04-20T17:14:50.596Z,37.70
2023-04-20T17:17:22.871Z,37.33
2023-04-20T17:19:55.206Z,38.45
2023-04-20T17:22:27.347Z,38.97
2023-04-20T17:25:00.907Z,42.65
2023-04-20T17:27:33.274Z,39.05
2023-04-20T17:30:06.356Z,37.35
2023-04-20T17:32:39.045Z,38.78
2023-04-20T17:35:11.349Z,38.30
2023-04-20T17:37:43.513Z,36.08
2023-04-20T17:40:15.821Z,47.65
2023-04-20T17:42:48.069Z,44.53
2023-04-20T17:45:20.288Z,38.85
2023-04-20T17:47:53.921Z,42.85
2023-04-20T17:52:58.238Z,42.20
2023-04-20T17:55:30.785Z,39.03
2023-04-20T17:58:02.960Z,37.13
2023-04-20T18:00:35.443Z,35.88
2023-04-20T18:03:07.754Z,40.70
2023-04-20T18:05:40.032Z,39.00
2023-04-20T18:08:13.565Z,35.72
2023-04-20T18:10:46.314Z,35.22
2023-04-20T18:13:18.413Z,38.10
2023-04-20T18:15:51.054Z,33.13
2023-04-20T18:18:23.219Z,33.47
2023-04-20T18:20:55.868Z,32.35
2023-04-20T18:23:30.374Z,35.80
2023-04-20T18:26:02.751Z,32.78
2023-04-20T18:28:35.572Z,36.53
2023-04-20T18:31:08.124Z,33.63
2023-04-20T18:33:40.584Z,37.38
2023-04-20T18:36:12.756Z,34.15
2023-04-20T18:38:45.430Z,35.22
2023-04-20T18:41:18.315Z,36.72
2023-04-20T18:43:53.891Z,36.67
2023-04-20T18:46:26.105Z,32.67
2023-04-20T18:48:58.521Z,34.88
2023-04-20T18:51:32.267Z,34.40
2023-04-20T18:54:05.244Z,40.20
2023-04-20T18:56:38.888Z,36.58
2023-04-20T18:59:12.437Z,39.67
2023-04-20T19:01:44.640Z,36.33
2023-04-20T19:04:18.049Z,35.67
2023-04-20T19:06:50.511Z,42.00
2023-04-20T19:09:23.527Z,35.55
2023-04-20T19:11:55.670Z,35.90
2023-04-20T19:14:27.894Z,37.58
2023-04-20T19:17:02.216Z,42.20
2023-04-20T19:19:37.620Z,41.88
2023-04-20T19:22:09.966Z,35.43
2023-04-20T19:24:42.432Z,39.38
2023-04-20T19:27:14.942Z,39.25
2023-04-20T19:29:47.425Z,39.30
2023-04-20T19:32:19.576Z,38.35
2023-04-20T19:34:56.644Z,43.15
2023-04-20T19:37:29.007Z,43.85
2023-04-20T19:40:01.400Z,42.60
2023-04-20T19:42:33.678Z,41.65
2023-04-20T19:45:06.872Z,42.97
2023-04-20T19:47:39.117Z,49.15
2023-04-20T19:50:11.591Z,43.42
2023-04-20T19:52:43.817Z,43.67
2023-04-20T19:55:15.984Z,38.95
2023-04-20T19:57:48.265Z,37.78
2023-04-20T20:00:20.947Z,39.10
2023-04-20T20:02:53.527Z,42.40
2023-04-20T20:05:25.898Z,43.03
2023-04-20T20:07:57.978Z,37.17
2023-04-20T20:10:30.422Z,39.90
2023-04-20T20:13:02.786Z,36.10
2023-04-20T20:15:37.515Z,33.87
2023-04-20T20:18:10.724Z,38.90
2023-04-20T20:20:43.486Z,28.88
2023-04-20T20:23:15.720Z,31.35
2023-04-20T20:25:48.233Z,26.33
2023-04-20T20:28:20.902Z,30.83
2023-04-20T20:30:53.161Z,30.42
2023-04-20T20:33:27.007Z,30.05
2023-04-20T20:36:01.730Z,30.88
2023-04-20T20:38:34.820Z,27.77
2023-04-20T20:41:07.086Z,28.52
2023-04-20T20:43:42.291Z,27.83
2023-04-20T20:46:14.691Z,27.33
2023-04-20T20:48:47.118Z,25.88
2023-04-20T20:51:19.834Z,33.30
2023-04-20T20:53:52.283Z,29.90
2023-04-20T20:56:24.910Z,37.33
2023-04-20T20:58:57.272Z,43.97
2023-04-20T21:01:29.460Z,40.65
2023-04-20T21:04:01.686Z,44.90
2023-04-20T21:06:34.145Z,41.33
2023-04-20T21:09:06.345Z,33.00
2023-04-20T21:11:38.467Z,33.05
2023-04-20T21:14:10.857Z,35.53
2023-04-20T21:16:43.028Z,43.05
2023-04-20T21:19:15.149Z,80.47
2023-04-20T21:21:47.193Z,57.67
2023-04-20T21:24:19.521Z,45.22
2023-04-20T21:26:52.689Z,43.88
2023-04-20T21:29:24.839Z,35.85
2023-04-20T21:31:57.205Z,73.72
2023-04-20T21:34:29.386Z,40.83
2023-04-20T21:37:05.373Z,39.83
2023-04-20T21:39:37.580Z,31.08
2023-04-20T21:42:10.120Z,29.00
2023-04-20T21:44:42.380Z,25.00
2023-04-20T21:47:14.469Z,29.45
2023-04-20T21:49:46.499Z,30.10
2023-04-20T21:52:18.682Z,29.40
2023-04-20T21:54:50.821Z,28.08
2023-04-20T21:57:23.354Z,28.45
2023-04-20T21:59:55.465Z,29.17
2023-04-20T22:02:27.667Z,26.50
2023-04-20T22:04:59.918Z,40.17
2023-04-20T22:07:32.894Z,31.58
2023-04-20T22:10:06.359Z,26.63
2023-04-20T22:12:40.670Z,26.38
2023-04-20T22:15:14.456Z,28.33
2023-04-20T22:17:46.772Z,24.55
2023-04-20T22:20:19.593Z,25.95
2023-04-20T22:22:51.653Z,26.13
2023-04-20T22:25:26.900Z,24.58
2023-04-20T22:27:58.979Z,30.25
2023-04-20T22:30:31.337Z,22.40
2023-04-20T22:33:04.223Z,23.02
2023-04-20T22:35:36.486Z,24.40
2023-04-20T22:38:08.796Z,26.38
2023-04-20T22:40:40.876Z,24.38
2023-04-20T22:43:13.067Z,24.50
2023-04-20T22:45:45.525Z,23.77
2023-04-20T22:48:17.788Z,22.25
2023-04-20T22:50:49.845Z,27.65
2023-04-20T22:53:21.918Z,24.20
2023-04-20T22:55:53.984Z,22.08
2023-04-20T22:58:26.125Z,26.98
2023-04-20T23:00:58.854Z,23.58
2023-04-20T23:03:31.597Z,23.80
2023-04-20T23:06:03.933Z,25.70
2023-04-20T23:08:35.980Z,28.55
2023-04-20T23:11:08.282Z,26.23
2023-04-20T23:13:41.475Z,29.15
2023-04-20T23:16:13.891Z,30.98
2023-04-20T23:18:46.004Z,30.67
2023-04-20T23:21:18.421Z,30.35
2023-04-20T23:23:50.879Z,30.75
2023-04-20T23:26:23.979Z,34.70
2023-04-20T23:28:56.144Z,32.65
2023-04-20T23:31:28.493Z,29.33
2023-04-20T23:34:00.794Z,33.47
2023-04-20T23:36:33.063Z,33.13
2023-04-20T23:39:05.950Z,36.22
2023-04-20T23:41:38.016Z,34.25
2023-04-20T23:44:10.197Z,34.85
2023-04-20T23:46:42.341Z,37.28
2023-04-20T23:49:14.430Z,41.42
2023-04-20T23:51:46.517Z,38.03
2023-04-20T23:54:18.646Z,38.40
2023-04-20T23:56:51.093Z,39.63
2023-04-20T23:59:23.474Z,41.95
